Terminal Aerodrome Forecast
Issued by NWS Charleston, WV

Home | Current Version | Previous Version | Text Only | Print | Product List | Glossary On
Versions: 1 2 3 4 5 6 7 8 9 10 11 12 13 14 15 16 17 18 19 20 21
000
FTUS41 KRLX 251700
TAFCRW
TAF
KCRW 251730Z 2518/2618 17004KT P6SM BKN070
     FM260200 15004KT 5SM -RA BR BKN050
     FM260500 13004KT 2SM -RA BR OVC020
     FM260700 13004KT 2SM -RASNPL BR OVC015
     FM261200 00000KT 2SM -RASN BR OVC008=

USA.gov is the U.S. government's official web portal to all federal, state and local government web resources and services.